Time,TemperatureF,DewpointF,PressureIn,WindDirection,WindDirectionDegrees,WindSpeedMPH,WindSpeedGustMPH,Humidity,HourlyPrecipIn,Conditions,Clouds,dailyrainin,SoftwareType,DateUTC
2013-07-07 00:08:00,77.0,73.8,29.94,SE,135,3.7,-999.0,90,-99.99,,,0.00,Acu-Link.com,2013-07-07 04:08:00,
2013-07-07 00:23:00,77.0,73.8,29.94,South,180,0.0,-999.0,90,-99.99,,,0.00,Acu-Link.com,2013-07-07 04:23:00,
2013-07-07 00:39:00,76.6,73.4,29.94,NNE,22,0.0,-999.0,90,-99.99,,,0.00,Acu-Link.com,2013-07-07 04:39:00,
2013-07-07 00:54:00,76.3,73.5,29.93,ESE,112,3.2,-999.0,91,-99.99,,,0.00,Acu-Link.com,2013-07-07 04:54:00,
2013-07-07 01:09:00,76.1,73.6,29.93,East,90,2.2,-999.0,92,-99.99,,,0.00,Acu-Link.com,2013-07-07 05:09:00,
2013-07-07 01:24:00,75.9,73.4,29.94,SSE,157,3.2,-999.0,92,-99.99,,,0.00,Acu-Link.com,2013-07-07 05:24:00,
2013-07-07 01:39:00,75.7,73.2,29.93,SE,135,2.7,-999.0,92,-99.99,,,0.00,Acu-Link.com,2013-07-07 05:39:00,
2013-07-07 01:55:00,75.6,73.4,29.93,ENE,67,2.7,-999.0,93,-99.99,,,0.00,Acu-Link.com,2013-07-07 05:55:00,
2013-07-07 02:10:00,75.2,73.0,29.94,East,90,0.0,-999.0,93,-99.99,,,0.00,Acu-Link.com,2013-07-07 06:10:00,
2013-07-07 02:25:00,75.2,73.3,29.93,ENE,67,0.0,-999.0,94,-99.99,,,0.00,Acu-Link.com,2013-07-07 06:25:00,
2013-07-07 02:40:00,75.2,73.3,29.93,ESE,112,1.1,-999.0,94,-99.99,,,0.00,Acu-Link.com,2013-07-07 06:40:00,
2013-07-07 02:55:00,75.2,73.3,29.91,ESE,112,1.7,-999.0,94,-99.99,,,0.00,Acu-Link.com,2013-07-07 06:55:00,
2013-07-07 03:11:00,75.0,73.2,29.92,ESE,112,2.7,-999.0,94,-99.99,,,0.00,Acu-Link.com,2013-07-07 07:11:00,
2013-07-07 03:26:00,74.8,73.3,29.91,ESE,112,2.7,-999.0,95,-99.99,,,0.00,Acu-Link.com,2013-07-07 07:26:00,
2013-07-07 03:41:00,74.8,73.3,29.92,SE,135,2.2,-999.0,95,-99.99,,,0.00,Acu-Link.com,2013-07-07 07:41:00,
2013-07-07 03:56:00,74.7,73.2,29.91,ESE,112,1.1,-999.0,95,-99.99,,,0.00,Acu-Link.com,2013-07-07 07:56:00,
2013-07-07 04:11:00,74.7,73.2,29.92,ESE,112,0.0,-999.0,95,-99.99,,,0.00,Acu-Link.com,2013-07-07 08:11:00,
2013-07-07 04:27:00,74.7,73.5,29.92,ESE,112,3.7,-999.0,96,-99.99,,,0.00,Acu-Link.com,2013-07-07 08:27:00,
2013-07-07 04:42:00,74.5,73.3,29.90,East,90,1.1,-999.0,96,-99.99,,,0.00,Acu-Link.com,2013-07-07 08:42:00,
2013-07-07 04:57:00,74.3,73.1,29.91,South,180,2.2,-999.0,96,-99.99,,,0.00,Acu-Link.com,2013-07-07 08:57:00,
2013-07-07 05:12:00,74.3,73.1,29.90,ESE,112,2.2,-999.0,96,-99.99,,,0.00,Acu-Link.com,2013-07-07 09:12:00,
2013-07-07 05:27:00,74.3,73.1,29.91,SSW,202,0.0,-999.0,96,-99.99,,,0.00,Acu-Link.com,2013-07-07 09:27:00,
2013-07-07 05:42:00,74.1,72.9,29.90,SE,135,0.0,-999.0,96,-99.99,,,0.00,Acu-Link.com,2013-07-07 09:42:00,
2013-07-07 05:57:00,74.1,72.9,29.90,East,90,0.0,-999.0,96,-99.99,,,0.00,Acu-Link.com,2013-07-07 09:57:00,
2013-07-07 06:13:00,73.9,72.7,29.90,SE,135,1.7,-999.0,96,-99.99,,,0.00,Acu-Link.com,2013-07-07 10:13:00,
2013-07-07 06:28:00,73.9,73.0,29.91,SSW,202,1.1,-999.0,97,-99.99,,,0.00,Acu-Link.com,2013-07-07 10:28:00,
2013-07-07 06:43:00,73.9,73.0,29.92,South,180,1.1,-999.0,97,-99.99,,,0.00,Acu-Link.com,2013-07-07 10:43:00,
2013-07-07 06:58:00,74.1,73.2,29.92,East,90,0.0,-999.0,97,-99.99,,,0.00,Acu-Link.com,2013-07-07 10:58:00,
2013-07-07 07:13:00,75.6,74.7,29.92,NE,45,1.1,-999.0,97,-99.99,,,0.00,Acu-Link.com,2013-07-07 11:13:00,
2013-07-07 07:29:00,77.7,75.5,29.92,West,270,0.0,-999.0,93,-99.99,,,0.00,Acu-Link.com,2013-07-07 11:29:00,
2013-07-07 07:44:00,79.9,76.0,29.94,ESE,112,3.7,-999.0,88,-99.99,,,0.00,Acu-Link.com,2013-07-07 11:44:00,
2013-07-07 07:59:00,81.9,77.3,29.93,ESE,112,4.7,-999.0,86,-99.99,,,0.00,Acu-Link.com,2013-07-07 11:59:00,
2013-07-07 08:14:00,82.2,77.2,29.94,ESE,112,0.0,-999.0,85,-99.99,,,0.00,Acu-Link.com,2013-07-07 12:14:00,
2013-07-07 08:29:00,84.2,78.1,29.93,WSW,247,0.0,-999.0,82,-99.99,,,0.00,Acu-Link.com,2013-07-07 12:29:00,
2013-07-07 08:45:00,85.8,78.1,29.94,East,90,4.2,-999.0,78,-99.99,,,0.00,Acu-Link.com,2013-07-07 12:45:00,
2013-07-07 09:00:00,86.7,77.8,29.95,ESE,112,5.3,-999.0,75,-99.99,,,0.00,Acu-Link.com,2013-07-07 13:00:00,
2013-07-07 09:15:00,88.5,77.9,29.96,ESE,112,3.7,-999.0,71,-99.99,,,0.00,Acu-Link.com,2013-07-07 13:15:00,
2013-07-07 09:30:00,86.4,77.1,29.95,East,90,6.8,-999.0,74,-99.99,,,0.00,Acu-Link.com,2013-07-07 13:30:00,
2013-07-07 09:46:00,85.1,76.3,29.96,ESE,112,3.2,-999.0,75,-99.99,,,0.00,Acu-Link.com,2013-07-07 13:46:00,
2013-07-07 10:01:00,84.7,75.9,29.96,ESE,112,5.3,-999.0,75,-99.99,,,0.00,Acu-Link.com,2013-07-07 14:01:00,
2013-07-07 10:16:00,85.5,76.6,29.96,SSE,157,3.7,-999.0,75,-99.99,,,0.00,Acu-Link.com,2013-07-07 14:16:00,
2013-07-07 10:31:00,86.5,76.4,29.95,East,90,5.3,-999.0,72,-99.99,,,0.00,Acu-Link.com,2013-07-07 14:31:00,
2013-07-07 10:46:00,87.6,76.6,29.95,East,90,6.8,-999.0,70,-99.99,,,0.00,Acu-Link.com,2013-07-07 14:46:00,
2013-07-07 11:02:00,88.0,75.6,29.95,ESE,112,7.3,-999.0,67,-99.99,,,0.00,Acu-Link.com,2013-07-07 15:02:00,
2013-07-07 11:17:00,89.1,75.8,29.96,ESE,112,5.3,-999.0,65,-99.99,,,0.00,Acu-Link.com,2013-07-07 15:17:00,
2013-07-07 11:32:00,89.4,75.6,29.96,ESE,112,5.8,-999.0,64,-99.99,,,0.00,Acu-Link.com,2013-07-07 15:32:00,
2013-07-07 11:47:00,91.2,74.8,29.95,SE,135,3.7,-999.0,59,-99.99,,,0.00,Acu-Link.com,2013-07-07 15:47:00,
2013-07-07 12:02:00,89.6,73.8,29.95,SSE,157,4.7,-999.0,60,-99.99,,,0.00,Acu-Link.com,2013-07-07 16:02:00,
2013-07-07 12:18:00,90.7,74.4,29.94,ESE,112,6.3,-999.0,59,-99.99,,,0.00,Acu-Link.com,2013-07-07 16:18:00,
2013-07-07 12:33:00,90.7,75.4,29.94,East,90,1.7,-999.0,61,-99.99,,,0.00,Acu-Link.com,2013-07-07 16:33:00,
2013-07-07 12:48:00,89.8,75.5,29.94,SSE,157,5.8,-999.0,63,-99.99,,,0.00,Acu-Link.com,2013-07-07 16:48:00,
2013-07-07 13:03:00,90.1,74.8,29.93,SSE,157,4.7,-999.0,61,-99.99,,,0.00,Acu-Link.com,2013-07-07 17:03:00,
2013-07-07 13:18:00,90.5,75.7,29.93,ESE,112,4.7,-999.0,62,-99.99,,,0.00,Acu-Link.com,2013-07-07 17:18:00,
2013-07-07 13:34:00,88.5,75.2,29.93,SSE,157,10.4,-999.0,65,-99.99,,,0.00,Acu-Link.com,2013-07-07 17:34:00,
2013-07-07 13:49:00,89.1,74.3,29.93,SSE,157,6.8,-999.0,62,-99.99,,,0.00,Acu-Link.com,2013-07-07 17:49:00,
2013-07-07 14:04:00,88.5,74.7,29.92,SSE,157,6.8,-999.0,64,-99.99,,,0.00,Acu-Link.com,2013-07-07 18:04:00,
2013-07-07 14:19:00,87.4,75.1,29.93,ESE,112,7.8,-999.0,67,-99.99,,,0.00,Acu-Link.com,2013-07-07 18:19:00,
2013-07-07 14:35:00,87.3,74.5,29.91,ESE,112,6.3,-999.0,66,-99.99,,,0.00,Acu-Link.com,2013-07-07 18:35:00,
2013-07-07 14:50:00,89.8,75.0,29.91,ESE,112,9.9,-999.0,62,-99.99,,,0.00,Acu-Link.com,2013-07-07 18:50:00,
2013-07-07 15:05:00,91.8,75.4,29.90,South,180,11.4,-999.0,59,-99.99,,,0.00,Acu-Link.com,2013-07-07 19:05:00,
2013-07-07 15:20:00,90.5,74.7,29.91,ESE,112,7.3,-999.0,60,-99.99,,,0.00,Acu-Link.com,2013-07-07 19:20:00,
2013-07-07 15:35:00,90.3,74.0,29.90,ESE,112,11.4,-999.0,59,-99.99,,,0.00,Acu-Link.com,2013-07-07 19:35:00,
2013-07-07 15:51:00,91.6,74.7,29.89,SE,135,4.7,-999.0,58,-99.99,,,0.00,Acu-Link.com,2013-07-07 19:51:00,
2013-07-07 16:06:00,90.7,74.4,29.90,SE,135,8.9,-999.0,59,-99.99,,,0.00,Acu-Link.com,2013-07-07 20:06:00,
2013-07-07 16:21:00,91.4,75.0,29.88,East,90,4.7,-999.0,59,-99.99,,,0.00,Acu-Link.com,2013-07-07 20:21:00,
2013-07-07 16:36:00,91.8,74.9,29.89,SE,135,6.3,-999.0,58,-99.99,,,0.00,Acu-Link.com,2013-07-07 20:36:00,
2013-07-07 16:51:00,91.9,73.4,29.88,ESE,112,8.3,-999.0,55,-99.99,,,0.00,Acu-Link.com,2013-07-07 20:51:00,
2013-07-07 17:07:00,92.7,73.6,29.87,ESE,112,6.8,-999.0,54,-99.99,,,0.00,Acu-Link.com,2013-07-07 21:07:00,
2013-07-07 17:22:00,91.8,73.3,29.88,East,90,7.8,-999.0,55,-99.99,,,0.00,Acu-Link.com,2013-07-07 21:22:00,
2013-07-07 17:37:00,91.4,72.9,29.87,SE,135,7.3,-999.0,55,-99.99,,,0.00,Acu-Link.com,2013-07-07 21:37:00,
2013-07-07 17:52:00,90.5,72.6,29.87,South,180,11.9,-999.0,56,-99.99,,,0.00,Acu-Link.com,2013-07-07 21:52:00,
2013-07-07 18:08:00,88.7,73.5,29.87,SE,135,4.2,-999.0,61,-99.99,,,0.00,Acu-Link.com,2013-07-07 22:08:00,
2013-07-07 18:23:00,88.3,73.1,29.88,SE,135,5.3,-999.0,61,-99.99,,,0.00,Acu-Link.com,2013-07-07 22:23:00,
2013-07-07 18:38:00,88.2,72.5,29.88,East,90,9.4,-999.0,60,-99.99,,,0.00,Acu-Link.com,2013-07-07 22:38:00,
2013-07-07 18:53:00,88.2,74.0,29.88,ESE,112,5.8,-999.0,63,-99.99,,,0.00,Acu-Link.com,2013-07-07 22:53:00,
2013-07-07 19:08:00,87.6,73.4,29.87,ESE,112,6.3,-999.0,63,-99.99,,,0.00,Acu-Link.com,2013-07-07 23:08:00,
2013-07-07 19:24:00,86.0,75.0,29.87,SE,135,7.8,-999.0,70,-99.99,,,0.00,Acu-Link.com,2013-07-07 23:24:00,
2013-07-07 19:39:00,85.6,74.7,29.88,East,90,4.7,-999.0,70,-99.99,,,0.00,Acu-Link.com,2013-07-07 23:39:00,
2013-07-07 19:54:00,84.2,74.2,29.90,ESE,112,7.3,-999.0,72,-99.99,,,0.00,Acu-Link.com,2013-07-07 23:54:00,
2013-07-07 20:10:00,82.6,74.6,29.90,ESE,112,4.2,-999.0,77,-99.99,,,0.00,Acu-Link.com,2013-07-08 00:10:00,
2013-07-07 20:25:00,81.5,74.7,29.90,ESE,112,4.7,-999.0,80,-99.99,,,0.00,Acu-Link.com,2013-07-08 00:25:00,
2013-07-07 20:40:00,80.8,74.8,29.91,ESE,112,4.2,-999.0,82,-99.99,,,0.00,Acu-Link.com,2013-07-08 00:40:00,
2013-07-07 20:55:00,80.2,74.6,29.92,ENE,67,5.3,-999.0,83,-99.99,,,0.00,Acu-Link.com,2013-07-08 00:55:00,
2013-07-07 21:10:00,79.9,74.6,29.92,SE,135,3.2,-999.0,84,-99.99,,,0.00,Acu-Link.com,2013-07-08 01:10:00,
2013-07-07 21:26:00,79.7,74.8,29.94,East,90,2.7,-999.0,85,-99.99,,,0.00,Acu-Link.com,2013-07-08 01:26:00,
2013-07-07 21:41:00,79.3,74.7,29.95,SE,135,3.2,-999.0,86,-99.99,,,0.00,Acu-Link.com,2013-07-08 01:41:00,
2013-07-07 21:56:00,79.2,74.6,29.94,NE,45,5.3,-999.0,86,-99.99,,,0.00,Acu-Link.com,2013-07-08 01:56:00,
2013-07-07 22:11:00,79.0,74.4,29.94,ESE,112,4.2,-999.0,86,-99.99,,,0.00,Acu-Link.com,2013-07-08 02:11:00,
2013-07-07 22:26:00,78.4,74.2,29.95,SE,135,4.7,-999.0,87,-99.99,,,0.00,Acu-Link.com,2013-07-08 02:26:00,
2013-07-07 22:42:00,78.3,74.4,29.96,South,180,4.7,-999.0,88,-99.99,,,0.00,Acu-Link.com,2013-07-08 02:42:00,
2013-07-07 22:57:00,77.7,73.9,29.96,East,90,3.7,-999.0,88,-99.99,,,0.00,Acu-Link.com,2013-07-08 02:57:00,
2013-07-07 23:12:00,77.5,74.0,29.96,ESE,112,2.7,-999.0,89,-99.99,,,0.00,Acu-Link.com,2013-07-08 03:12:00,
2013-07-07 23:27:00,77.4,73.9,29.96,ESE,112,2.2,-999.0,89,-99.99,,,0.00,Acu-Link.com,2013-07-08 03:27:00,
2013-07-07 23:42:00,77.2,73.7,29.97,ESE,112,3.7,-999.0,89,-99.99,,,0.00,Acu-Link.com,2013-07-08 03:42:00,
2013-07-07 23:58:00,77.2,73.7,29.96,SE,135,4.2,-999.0,89,-99.99,,,0.00,Acu-Link.com,2013-07-08 03:58:00,